sensor_id;sensor_type;location;lat;lon;timestamp;temperature;humidity
15483;DHT22;7843;50.330;7.312;2022-09-09T00:04:21;15.20;99.90
15483;DHT22;7843;50.330;7.312;2022-09-09T00:12:40;15.10;99.90
15483;DHT22;7843;50.330;7.312;2022-09-09T00:15:14;15.10;99.90
15483;DHT22;7843;50.330;7.312;2022-09-09T00:20:54;15.10;99.90
15483;DHT22;7843;50.330;7.312;2022-09-09T00:23:39;15.00;99.90
15483;DHT22;7843;50.330;7.312;2022-09-09T00:29:05;15.10;99.90
15483;DHT22;7843;50.330;7.312;2022-09-09T00:31:36;15.10;99.90
15483;DHT22;7843;50.330;7.312;2022-09-09T00:34:24;15.00;99.90
15483;DHT22;7843;50.330;7.312;2022-09-09T00:36:54;15.00;99.90
15483;DHT22;7843;50.330;7.312;2022-09-09T00:39:44;15.00;99.90
15483;DHT22;7843;50.330;7.312;2022-09-09T00:47:46;14.90;99.90
15483;DHT22;7843;50.330;7.312;2022-09-09T00:50:31;14.90;99.90
15483;DHT22;7843;50.330;7.312;2022-09-09T00:56:23;14.80;99.90
15483;DHT22;7843;50.330;7.312;2022-09-09T00:59:19;14.80;99.90
15483;DHT22;7843;50.330;7.312;2022-09-09T01:01:48;14.90;99.90
15483;DHT22;7843;50.330;7.312;2022-09-09T01:04:21;14.80;99.90
15483;DHT22;7843;50.330;7.312;2022-09-09T01:06:57;14.80;99.90
15483;DHT22;7843;50.330;7.312;2022-09-09T01:12:40;14.80;99.90
15483;DHT22;7843;50.330;7.312;2022-09-09T01:15:16;14.80;99.90
15483;DHT22;7843;50.330;7.312;2022-09-09T01:20:24;14.80;99.90
15483;DHT22;7843;50.330;7.312;2022-09-09T01:28:28;14.90;99.90
15483;DHT22;7843;50.330;7.312;2022-09-09T01:30:56;14.80;99.90
15483;DHT22;7843;50.330;7.312;2022-09-09T01:33:24;14.90;99.90
15483;DHT22;7843;50.330;7.312;2022-09-09T01:35:55;14.90;99.90
15483;DHT22;7843;50.330;7.312;2022-09-09T01:38:24;14.90;99.90
15483;DHT22;7843;50.330;7.312;2022-09-09T01:40:51;14.90;99.90
15483;DHT22;7843;50.330;7.312;2022-09-09T01:43:23;15.00;99.90
15483;DHT22;7843;50.330;7.312;2022-09-09T01:45:54;15.00;99.90
15483;DHT22;7843;50.330;7.312;2022-09-09T01:48:24;15.00;99.90
15483;DHT22;7843;50.330;7.312;2022-09-09T01:50:51;15.10;99.90
15483;DHT22;7843;50.330;7.312;2022-09-09T01:53:21;15.20;99.90
15483;DHT22;7843;50.330;7.312;2022-09-09T01:56:00;15.20;99.90
15483;DHT22;7843;50.330;7.312;2022-09-09T02:04:08;15.30;99.90
15483;DHT22;7843;50.330;7.312;2022-09-09T02:06:40;15.30;99.90
15483;DHT22;7843;50.330;7.312;2022-09-09T02:09:12;15.30;99.90
15483;DHT22;7843;50.330;7.312;2022-09-09T02:11:40;15.30;99.90
15483;DHT22;7843;50.330;7.312;2022-09-09T02:14:17;15.40;99.90
15483;DHT22;7843;50.330;7.312;2022-09-09T02:16:52;15.40;99.90
15483;DHT22;7843;50.330;7.312;2022-09-09T02:19:36;15.40;99.90
15483;DHT22;7843;50.330;7.312;2022-09-09T02:22:04;15.40;99.90
15483;DHT22;7843;50.330;7.312;2022-09-09T02:24:36;15.40;99.90
15483;DHT22;7843;50.330;7.312;2022-09-09T02:27:06;15.40;99.90
15483;DHT22;7843;50.330;7.312;2022-09-09T02:29:41;15.40;99.90
15483;DHT22;7843;50.330;7.312;2022-09-09T02:32:22;15.30;99.90
15483;DHT22;7843;50.330;7.312;2022-09-09T02:34:57;15.30;99.90
15483;DHT22;7843;50.330;7.312;2022-09-09T02:37:37;15.40;99.90
15483;DHT22;7843;50.330;7.312;2022-09-09T02:40:10;15.40;99.90
15483;DHT22;7843;50.330;7.312;2022-09-09T02:42:45;15.50;99.90
15483;DHT22;7843;50.330;7.312;2022-09-09T02:45:14;15.50;99.90
15483;DHT22;7843;50.330;7.312;2022-09-09T02:47:50;15.40;99.90
15483;DHT22;7843;50.330;7.312;2022-09-09T02:50:26;15.40;99.90
15483;DHT22;7843;50.330;7.312;2022-09-09T02:58:10;15.50;99.90
15483;DHT22;7843;50.330;7.312;2022-09-09T03:00:39;15.50;99.90
15483;DHT22;7843;50.330;7.312;2022-09-09T03:03:07;15.60;99.90
15483;DHT22;7843;50.330;7.312;2022-09-09T03:05:35;15.60;99.90
15483;DHT22;7843;50.330;7.312;2022-09-09T03:08:03;15.60;99.90
15483;DHT22;7843;50.330;7.312;2022-09-09T03:10:32;15.60;99.90
15483;DHT22;7843;50.330;7.312;2022-09-09T03:13:00;15.70;99.90
15483;DHT22;7843;50.330;7.312;2022-09-09T03:15:27;15.60;99.90
15483;DHT22;7843;50.330;7.312;2022-09-09T03:17:57;15.70;99.90
15483;DHT22;7843;50.330;7.312;2022-09-09T03:20:25;15.70;99.90
15483;DHT22;7843;50.330;7.312;2022-09-09T03:22:53;15.60;99.90
15483;DHT22;7843;50.330;7.312;2022-09-09T03:25:20;15.60;99.90
15483;DHT22;7843;50.330;7.312;2022-09-09T03:27:50;15.70;99.90
15483;DHT22;7843;50.330;7.312;2022-09-09T03:30:22;15.60;99.90
15483;DHT22;7843;50.330;7.312;2022-09-09T03:32:48;15.60;99.90
15483;DHT22;7843;50.330;7.312;2022-09-09T03:35:15;15.50;99.90
15483;DHT22;7843;50.330;7.312;2022-09-09T03:37:42;15.50;99.90
15483;DHT22;7843;50.330;7.312;2022-09-09T03:40:09;15.50;99.90
15483;DHT22;7843;50.330;7.312;2022-09-09T03:42:37;15.50;99.90
15483;DHT22;7843;50.330;7.312;2022-09-09T03:45:06;15.50;99.90
15483;DHT22;7843;50.330;7.312;2022-09-09T03:47:33;15.50;99.90
15483;DHT22;7843;50.330;7.312;2022-09-09T03:50:00;15.50;99.90
15483;DHT22;7843;50.330;7.312;2022-09-09T03:52:26;15.50;99.90
15483;DHT22;7843;50.330;7.312;2022-09-09T03:54:53;15.40;99.90
15483;DHT22;7843;50.330;7.312;2022-09-09T03:57:21;15.40;99.90
15483;DHT22;7843;50.330;7.312;2022-09-09T03:59:48;15.40;99.90
15483;DHT22;7843;50.330;7.312;2022-09-09T04:02:14;15.30;99.90
15483;DHT22;7843;50.330;7.312;2022-09-09T04:04:41;15.30;99.90
15483;DHT22;7843;50.330;7.312;2022-09-09T04:07:08;15.30;99.90
15483;DHT22;7843;50.330;7.312;2022-09-09T04:09:35;15.20;99.90
15483;DHT22;7843;50.330;7.312;2022-09-09T04:12:02;15.20;99.90
15483;DHT22;7843;50.330;7.312;2022-09-09T04:14:28;15.10;99.90
15483;DHT22;7843;50.330;7.312;2022-09-09T04:16:55;15.10;99.90
15483;DHT22;7843;50.330;7.312;2022-09-09T04:19:23;15.00;99.90
15483;DHT22;7843;50.330;7.312;2022-09-09T04:21:50;15.00;99.90
15483;DHT22;7843;50.330;7.312;2022-09-09T04:24:18;15.00;99.90
15483;DHT22;7843;50.330;7.312;2022-09-09T04:26:45;14.90;99.90
15483;DHT22;7843;50.330;7.312;2022-09-09T04:29:13;14.90;99.90
15483;DHT22;7843;50.330;7.312;2022-09-09T04:31:39;15.00;99.90
15483;DHT22;7843;50.330;7.312;2022-09-09T04:34:09;14.90;99.90
15483;DHT22;7843;50.330;7.312;2022-09-09T04:36:35;14.90;99.90
15483;DHT22;7843;50.330;7.312;2022-09-09T04:39:02;14.90;99.90
15483;DHT22;7843;50.330;7.312;2022-09-09T04:41:29;14.90;99.90
15483;DHT22;7843;50.330;7.312;2022-09-09T04:43:57;15.00;99.90
15483;DHT22;7843;50.330;7.312;2022-09-09T04:46:25;15.00;99.90
15483;DHT22;7843;50.330;7.312;2022-09-09T04:48:52;14.90;99.90
15483;DHT22;7843;50.330;7.312;2022-09-09T04:51:20;15.00;99.90
15483;DHT22;7843;50.330;7.312;2022-09-09T04:53:46;15.00;99.90
15483;DHT22;7843;50.330;7.312;2022-09-09T04:56:15;15.00;99.90
15483;DHT22;7843;50.330;7.312;2022-09-09T04:58:42;15.00;99.90
15483;DHT22;7843;50.330;7.312;2022-09-09T05:01:17;15.00;99.90
15483;DHT22;7843;50.330;7.312;2022-09-09T05:03:45;15.00;99.90
15483;DHT22;7843;50.330;7.312;2022-09-09T05:06:17;15.00;99.90
15483;DHT22;7843;50.330;7.312;2022-09-09T05:08:44;15.00;99.90
15483;DHT22;7843;50.330;7.312;2022-09-09T05:11:18;15.10;99.90
15483;DHT22;7843;50.330;7.312;2022-09-09T05:13:45;15.10;99.90
15483;DHT22;7843;50.330;7.312;2022-09-09T05:16:13;15.10;99.90
15483;DHT22;7843;50.330;7.312;2022-09-09T05:18:40;15.10;99.90
15483;DHT22;7843;50.330;7.312;2022-09-09T05:21:10;15.10;99.90
15483;DHT22;7843;50.330;7.312;2022-09-09T05:23:37;15.10;99.90
15483;DHT22;7843;50.330;7.312;2022-09-09T05:26:05;15.20;99.90
15483;DHT22;7843;50.330;7.312;2022-09-09T05:28:34;15.20;99.90
15483;DHT22;7843;50.330;7.312;2022-09-09T05:31:04;15.30;99.90
15483;DHT22;7843;50.330;7.312;2022-09-09T05:33:31;15.30;99.90
15483;DHT22;7843;50.330;7.312;2022-09-09T05:35:59;15.30;99.90
15483;DHT22;7843;50.330;7.312;2022-09-09T05:38:28;15.40;99.90
15483;DHT22;7843;50.330;7.312;2022-09-09T05:40:55;15.40;99.90
15483;DHT22;7843;50.330;7.312;2022-09-09T05:43:26;15.50;99.90
15483;DHT22;7843;50.330;7.312;2022-09-09T05:48:29;15.60;99.90
15483;DHT22;7843;50.330;7.312;2022-09-09T05:50:56;15.60;99.90
15483;DHT22;7843;50.330;7.312;2022-09-09T05:53:23;15.70;99.90
15483;DHT22;7843;50.330;7.312;2022-09-09T05:55:50;15.80;99.90
15483;DHT22;7843;50.330;7.312;2022-09-09T05:58:17;16.00;99.90
15483;DHT22;7843;50.330;7.312;2022-09-09T06:00:43;16.10;99.90
15483;DHT22;7843;50.330;7.312;2022-09-09T06:03:11;16.10;99.90
15483;DHT22;7843;50.330;7.312;2022-09-09T06:05:38;16.10;99.90
15483;DHT22;7843;50.330;7.312;2022-09-09T06:08:05;16.20;99.90
15483;DHT22;7843;50.330;7.312;2022-09-09T06:10:31;16.30;99.90
15483;DHT22;7843;50.330;7.312;2022-09-09T06:12:58;16.50;99.90
15483;DHT22;7843;50.330;7.312;2022-09-09T06:15:24;16.50;99.90
15483;DHT22;7843;50.330;7.312;2022-09-09T06:17:55;16.60;99.80
15483;DHT22;7843;50.330;7.312;2022-09-09T06:20:22;16.60;99.40
15483;DHT22;7843;50.330;7.312;2022-09-09T06:22:49;16.70;99.80
15483;DHT22;7843;50.330;7.312;2022-09-09T06:25:15;16.70;99.20
15483;DHT22;7843;50.330;7.312;2022-09-09T06:27:42;16.70;99.00
15483;DHT22;7843;50.330;7.312;2022-09-09T06:30:09;16.80;99.50
15483;DHT22;7843;50.330;7.312;2022-09-09T06:32:36;16.80;99.20
15483;DHT22;7843;50.330;7.312;2022-09-09T06:35:04;16.90;99.00
15483;DHT22;7843;50.330;7.312;2022-09-09T06:37:31;16.90;99.20
15483;DHT22;7843;50.330;7.312;2022-09-09T06:39:57;17.00;98.70
15483;DHT22;7843;50.330;7.312;2022-09-09T06:42:24;17.00;98.50
15483;DHT22;7843;50.330;7.312;2022-09-09T06:44:51;17.00;98.90
15483;DHT22;7843;50.330;7.312;2022-09-09T06:47:18;16.90;98.00
15483;DHT22;7843;50.330;7.312;2022-09-09T06:49:45;16.90;98.10
15483;DHT22;7843;50.330;7.312;2022-09-09T06:52:13;16.80;98.30
15483;DHT22;7843;50.330;7.312;2022-09-09T06:54:40;16.80;98.00
15483;DHT22;7843;50.330;7.312;2022-09-09T06:57:07;16.80;99.00
15483;DHT22;7843;50.330;7.312;2022-09-09T06:59:46;16.80;98.20
15483;DHT22;7843;50.330;7.312;2022-09-09T07:02:13;16.90;98.80
15483;DHT22;7843;50.330;7.312;2022-09-09T07:04:39;17.00;98.40
15483;DHT22;7843;50.330;7.312;2022-09-09T07:07:06;17.10;98.00
15483;DHT22;7843;50.330;7.312;2022-09-09T07:09:34;17.20;97.70
15483;DHT22;7843;50.330;7.312;2022-09-09T07:12:01;17.20;97.60
15483;DHT22;7843;50.330;7.312;2022-09-09T07:14:28;17.30;97.10
15483;DHT22;7843;50.330;7.312;2022-09-09T07:16:55;17.40;96.80
15483;DHT22;7843;50.330;7.312;2022-09-09T07:19:24;17.50;97.80
15483;DHT22;7843;50.330;7.312;2022-09-09T07:21:51;17.60;96.50
15483;DHT22;7843;50.330;7.312;2022-09-09T07:24:17;17.70;96.60
15483;DHT22;7843;50.330;7.312;2022-09-09T07:26:44;17.80;96.40
15483;DHT22;7843;50.330;7.312;2022-09-09T07:29:12;17.80;96.50
15483;DHT22;7843;50.330;7.312;2022-09-09T07:31:45;17.90;96.50
15483;DHT22;7843;50.330;7.312;2022-09-09T07:34:12;18.00;95.40
15483;DHT22;7843;50.330;7.312;2022-09-09T07:36:39;17.80;93.80
15483;DHT22;7843;50.330;7.312;2022-09-09T07:39:09;17.90;94.10
15483;DHT22;7843;50.330;7.312;2022-09-09T07:41:40;17.90;93.50
15483;DHT22;7843;50.330;7.312;2022-09-09T07:44:11;17.90;93.60
15483;DHT22;7843;50.330;7.312;2022-09-09T07:46:39;18.10;94.00
15483;DHT22;7843;50.330;7.312;2022-09-09T07:49:07;18.10;94.80
15483;DHT22;7843;50.330;7.312;2022-09-09T07:51:38;18.20;93.60
15483;DHT22;7843;50.330;7.312;2022-09-09T07:54:09;18.30;92.50
15483;DHT22;7843;50.330;7.312;2022-09-09T07:56:38;18.40;92.90
15483;DHT22;7843;50.330;7.312;2022-09-09T07:59:06;18.40;92.30
15483;DHT22;7843;50.330;7.312;2022-09-09T08:01:45;18.60;92.50
15483;DHT22;7843;50.330;7.312;2022-09-09T08:04:14;18.60;91.20
15483;DHT22;7843;50.330;7.312;2022-09-09T08:06:51;18.50;91.00
15483;DHT22;7843;50.330;7.312;2022-09-09T08:09:20;18.60;92.00
15483;DHT22;7843;50.330;7.312;2022-09-09T08:11:47;18.70;91.70
15483;DHT22;7843;50.330;7.312;2022-09-09T08:14:14;18.80;92.30
15483;DHT22;7843;50.330;7.312;2022-09-09T08:16:43;18.80;91.60
15483;DHT22;7843;50.330;7.312;2022-09-09T08:19:10;18.90;90.70
15483;DHT22;7843;50.330;7.312;2022-09-09T08:21:39;18.80;88.50
15483;DHT22;7843;50.330;7.312;2022-09-09T08:24:08;18.80;88.70
15483;DHT22;7843;50.330;7.312;2022-09-09T08:26:40;18.80;88.60
15483;DHT22;7843;50.330;7.312;2022-09-09T08:29:09;18.90;86.90
15483;DHT22;7843;50.330;7.312;2022-09-09T08:31:51;19.10;87.90
15483;DHT22;7843;50.330;7.312;2022-09-09T08:34:21;19.30;87.90
15483;DHT22;7843;50.330;7.312;2022-09-09T08:36:49;19.40;86.40
15483;DHT22;7843;50.330;7.312;2022-09-09T08:39:19;19.40;86.10
15483;DHT22;7843;50.330;7.312;2022-09-09T08:50:35;19.50;82.00
15483;DHT22;7843;50.330;7.312;2022-09-09T08:53:05;19.40;83.70
15483;DHT22;7843;50.330;7.312;2022-09-09T08:56:02;19.30;82.10
15483;DHT22;7843;50.330;7.312;2022-09-09T08:58:32;19.30;83.30
15483;DHT22;7843;50.330;7.312;2022-09-09T09:09:01;19.20;85.30
15483;DHT22;7843;50.330;7.312;2022-09-09T09:11:38;19.10;83.80
15483;DHT22;7843;50.330;7.312;2022-09-09T09:14:20;19.20;85.70
15483;DHT22;7843;50.330;7.312;2022-09-09T09:19:21;19.70;84.00
15483;DHT22;7843;50.330;7.312;2022-09-09T09:22:13;19.80;84.20
15483;DHT22;7843;50.330;7.312;2022-09-09T09:25:21;19.90;82.80
15483;DHT22;7843;50.330;7.312;2022-09-09T09:27:59;20.20;84.30
15483;DHT22;7843;50.330;7.312;2022-09-09T09:30:40;20.20;83.30
15483;DHT22;7843;50.330;7.312;2022-09-09T09:33:46;20.30;82.80
15483;DHT22;7843;50.330;7.312;2022-09-09T09:36:15;20.40;83.10
15483;DHT22;7843;50.330;7.312;2022-09-09T09:38:58;20.40;82.40
15483;DHT22;7843;50.330;7.312;2022-09-09T09:41:46;20.40;81.90
15483;DHT22;7843;50.330;7.312;2022-09-09T09:44:29;20.50;81.60
15483;DHT22;7843;50.330;7.312;2022-09-09T09:47:08;20.50;81.40
15483;DHT22;7843;50.330;7.312;2022-09-09T09:49:35;20.40;81.30
15483;DHT22;7843;50.330;7.312;2022-09-09T09:52:06;20.40;81.20
15483;DHT22;7843;50.330;7.312;2022-09-09T09:54:38;20.50;81.70
15483;DHT22;7843;50.330;7.312;2022-09-09T09:57:14;20.50;80.50
15483;DHT22;7843;50.330;7.312;2022-09-09T09:59:42;20.70;81.80
15483;DHT22;7843;50.330;7.312;2022-09-09T10:02:16;21.10;80.20
15483;DHT22;7843;50.330;7.312;2022-09-09T10:04:43;21.20;79.10
15483;DHT22;7843;50.330;7.312;2022-09-09T10:07:19;21.20;79.00
15483;DHT22;7843;50.330;7.312;2022-09-09T10:09:57;21.20;78.70
15483;DHT22;7843;50.330;7.312;2022-09-09T10:12:45;21.10;78.70
15483;DHT22;7843;50.330;7.312;2022-09-09T10:15:37;21.10;78.00
15483;DHT22;7843;50.330;7.312;2022-09-09T10:18:19;21.00;78.90
15483;DHT22;7843;50.330;7.312;2022-09-09T10:23:58;20.90;77.10
15483;DHT22;7843;50.330;7.312;2022-09-09T10:26:48;20.90;78.70
15483;DHT22;7843;50.330;7.312;2022-09-09T10:29:27;21.00;79.50
15483;DHT22;7843;50.330;7.312;2022-09-09T10:35:03;21.10;78.60
15483;DHT22;7843;50.330;7.312;2022-09-09T10:37:50;21.40;79.30
15483;DHT22;7843;50.330;7.312;2022-09-09T10:40:38;21.60;75.90
15483;DHT22;7843;50.330;7.312;2022-09-09T10:47:04;21.90;76.90
15483;DHT22;7843;50.330;7.312;2022-09-09T10:51:59;21.90;75.10
15483;DHT22;7843;50.330;7.312;2022-09-09T11:00:04;21.90;76.00
15483;DHT22;7843;50.330;7.312;2022-09-09T11:02:33;22.10;75.50
15483;DHT22;7843;50.330;7.312;2022-09-09T11:05:08;22.20;75.50
15483;DHT22;7843;50.330;7.312;2022-09-09T11:07:41;22.30;74.00
15483;DHT22;7843;50.330;7.312;2022-09-09T11:10:38;22.60;74.30
15483;DHT22;7843;50.330;7.312;2022-09-09T11:13:14;22.80;73.80
15483;DHT22;7843;50.330;7.312;2022-09-09T11:15:46;22.70;74.10
15483;DHT22;7843;50.330;7.312;2022-09-09T11:18:20;22.50;72.70
15483;DHT22;7843;50.330;7.312;2022-09-09T11:20:51;22.20;73.00
15483;DHT22;7843;50.330;7.312;2022-09-09T11:23:27;22.10;74.40
15483;DHT22;7843;50.330;7.312;2022-09-09T11:25:57;22.00;74.10
15483;DHT22;7843;50.330;7.312;2022-09-09T11:34:18;21.80;74.80
15483;DHT22;7843;50.330;7.312;2022-09-09T11:37:04;21.60;78.30
15483;DHT22;7843;50.330;7.312;2022-09-09T11:42:24;20.60;84.90
15483;DHT22;7843;50.330;7.312;2022-09-09T11:44:51;20.10;87.60
15483;DHT22;7843;50.330;7.312;2022-09-09T11:47:29;19.50;92.50
15483;DHT22;7843;50.330;7.312;2022-09-09T11:52:43;19.10;94.10
15483;DHT22;7843;50.330;7.312;2022-09-09T11:55:26;19.20;92.20
15483;DHT22;7843;50.330;7.312;2022-09-09T12:03:44;19.40;92.00
15483;DHT22;7843;50.330;7.312;2022-09-09T12:06:28;19.60;93.60
15483;DHT22;7843;50.330;7.312;2022-09-09T12:09:08;19.70;91.10
15483;DHT22;7843;50.330;7.312;2022-09-09T12:11:37;19.90;90.80
15483;DHT22;7843;50.330;7.312;2022-09-09T12:14:03;20.00;89.10
15483;DHT22;7843;50.330;7.312;2022-09-09T12:16:34;19.90;89.30
15483;DHT22;7843;50.330;7.312;2022-09-09T12:19:20;20.00;90.20
15483;DHT22;7843;50.330;7.312;2022-09-09T12:21:58;20.00;88.00
15483;DHT22;7843;50.330;7.312;2022-09-09T12:24:37;20.60;90.00
15483;DHT22;7843;50.330;7.312;2022-09-09T12:28:14;21.60;85.00
15483;DHT22;7843;50.330;7.312;2022-09-09T12:30:47;22.30;79.00
15483;DHT22;7843;50.330;7.312;2022-09-09T12:33:18;22.90;78.30
15483;DHT22;7843;50.330;7.312;2022-09-09T12:35:51;23.10;76.00
15483;DHT22;7843;50.330;7.312;2022-09-09T12:38:34;23.80;79.90
15483;DHT22;7843;50.330;7.312;2022-09-09T12:41:02;24.60;76.80
15483;DHT22;7843;50.330;7.312;2022-09-09T12:43:29;25.00;68.70
15483;DHT22;7843;50.330;7.312;2022-09-09T12:46:00;25.10;66.40
15483;DHT22;7843;50.330;7.312;2022-09-09T12:48:32;24.80;68.10
15483;DHT22;7843;50.330;7.312;2022-09-09T12:51:00;24.50;70.10
15483;DHT22;7843;50.330;7.312;2022-09-09T12:53:35;24.60;69.60
15483;DHT22;7843;50.330;7.312;2022-09-09T12:56:05;24.40;67.50
15483;DHT22;7843;50.330;7.312;2022-09-09T12:58:35;24.20;69.30
15483;DHT22;7843;50.330;7.312;2022-09-09T13:01:04;25.10;71.50
15483;DHT22;7843;50.330;7.312;2022-09-09T13:03:33;25.40;67.30
15483;DHT22;7843;50.330;7.312;2022-09-09T13:06:21;25.80;68.10
15483;DHT22;7843;50.330;7.312;2022-09-09T13:08:56;25.90;65.50
15483;DHT22;7843;50.330;7.312;2022-09-09T13:11:30;25.50;64.40
15483;DHT22;7843;50.330;7.312;2022-09-09T13:14:02;25.00;68.50
15483;DHT22;7843;50.330;7.312;2022-09-09T13:16:31;24.50;69.30
15483;DHT22;7843;50.330;7.312;2022-09-09T13:19:01;24.20;71.00
15483;DHT22;7843;50.330;7.312;2022-09-09T13:21:36;23.80;70.20
15483;DHT22;7843;50.330;7.312;2022-09-09T13:24:27;23.50;70.40
15483;DHT22;7843;50.330;7.312;2022-09-09T13:27:25;23.20;72.00
15483;DHT22;7843;50.330;7.312;2022-09-09T13:29:53;22.90;74.10
15483;DHT22;7843;50.330;7.312;2022-09-09T13:32:25;22.70;73.50
15483;DHT22;7843;50.330;7.312;2022-09-09T13:34:58;22.60;75.80
15483;DHT22;7843;50.330;7.312;2022-09-09T13:37:36;22.60;77.00
15483;DHT22;7843;50.330;7.312;2022-09-09T13:40:05;22.60;72.40
15483;DHT22;7843;50.330;7.312;2022-09-09T13:42:37;22.60;73.00
15483;DHT22;7843;50.330;7.312;2022-09-09T13:45:06;22.80;73.40
15483;DHT22;7843;50.330;7.312;2022-09-09T13:47:36;23.20;71.30
15483;DHT22;7843;50.330;7.312;2022-09-09T13:50:36;23.30;71.80
15483;DHT22;7843;50.330;7.312;2022-09-09T13:53:02;23.10;71.30
15483;DHT22;7843;50.330;7.312;2022-09-09T13:55:30;22.80;70.60
15483;DHT22;7843;50.330;7.312;2022-09-09T13:58:00;22.60;72.50
15483;DHT22;7843;50.330;7.312;2022-09-09T14:00:33;22.30;73.60
15483;DHT22;7843;50.330;7.312;2022-09-09T14:03:02;22.00;72.80
15483;DHT22;7843;50.330;7.312;2022-09-09T14:05:31;21.80;74.90
15483;DHT22;7843;50.330;7.312;2022-09-09T14:07:59;21.60;77.80
15483;DHT22;7843;50.330;7.312;2022-09-09T14:10:27;21.40;79.70
15483;DHT22;7843;50.330;7.312;2022-09-09T14:12:53;20.90;79.70
15483;DHT22;7843;50.330;7.312;2022-09-09T14:15:20;20.40;84.00
15483;DHT22;7843;50.330;7.312;2022-09-09T14:17:48;19.70;91.90
15483;DHT22;7843;50.330;7.312;2022-09-09T14:20:15;18.80;94.90
15483;DHT22;7843;50.330;7.312;2022-09-09T14:22:43;18.00;96.90
15483;DHT22;7843;50.330;7.312;2022-09-09T14:25:10;17.70;98.90
15483;DHT22;7843;50.330;7.312;2022-09-09T14:27:40;17.40;99.20
15483;DHT22;7843;50.330;7.312;2022-09-09T14:30:07;17.20;99.30
15483;DHT22;7843;50.330;7.312;2022-09-09T14:32:34;17.10;99.80
15483;DHT22;7843;50.330;7.312;2022-09-09T14:35:01;16.90;99.90
15483;DHT22;7843;50.330;7.312;2022-09-09T14:37:27;16.70;99.50
15483;DHT22;7843;50.330;7.312;2022-09-09T14:39:54;16.50;99.60
15483;DHT22;7843;50.330;7.312;2022-09-09T14:42:21;16.50;99.80
15483;DHT22;7843;50.330;7.312;2022-09-09T14:44:48;16.50;99.90
15483;DHT22;7843;50.330;7.312;2022-09-09T14:47:15;16.70;99.90
15483;DHT22;7843;50.330;7.312;2022-09-09T14:49:41;16.90;99.90
15483;DHT22;7843;50.330;7.312;2022-09-09T14:52:09;17.20;99.90
15483;DHT22;7843;50.330;7.312;2022-09-09T14:54:36;17.50;99.90
15483;DHT22;7843;50.330;7.312;2022-09-09T14:57:02;17.90;99.90
15483;DHT22;7843;50.330;7.312;2022-09-09T14:59:29;18.40;99.90
15483;DHT22;7843;50.330;7.312;2022-09-09T15:01:56;18.70;99.60
15483;DHT22;7843;50.330;7.312;2022-09-09T15:04:23;19.20;99.50
15483;DHT22;7843;50.330;7.312;2022-09-09T15:06:50;19.80;98.90
15483;DHT22;7843;50.330;7.312;2022-09-09T15:09:18;20.20;97.90
15483;DHT22;7843;50.330;7.312;2022-09-09T15:11:45;20.40;97.70
15483;DHT22;7843;50.330;7.312;2022-09-09T15:14:12;20.50;97.20
15483;DHT22;7843;50.330;7.312;2022-09-09T15:16:39;20.50;96.80
15483;DHT22;7843;50.330;7.312;2022-09-09T15:19:06;20.30;97.70
15483;DHT22;7843;50.330;7.312;2022-09-09T15:21:35;20.00;97.60
15483;DHT22;7843;50.330;7.312;2022-09-09T15:24:02;20.00;97.90
15483;DHT22;7843;50.330;7.312;2022-09-09T15:26:29;19.80;98.30
15483;DHT22;7843;50.330;7.312;2022-09-09T15:28:56;19.60;97.80
15483;DHT22;7843;50.330;7.312;2022-09-09T15:31:28;19.50;98.50
15483;DHT22;7843;50.330;7.312;2022-09-09T15:33:57;19.50;98.30
15483;DHT22;7843;50.330;7.312;2022-09-09T15:36:31;19.30;98.30
15483;DHT22;7843;50.330;7.312;2022-09-09T15:39:00;19.10;98.60
15483;DHT22;7843;50.330;7.312;2022-09-09T15:41:28;18.90;99.00
15483;DHT22;7843;50.330;7.312;2022-09-09T15:43:56;18.90;98.80
15483;DHT22;7843;50.330;7.312;2022-09-09T15:46:51;18.80;99.40
15483;DHT22;7843;50.330;7.312;2022-09-09T15:49:21;18.80;98.60
15483;DHT22;7843;50.330;7.312;2022-09-09T15:51:53;18.80;99.20
15483;DHT22;7843;50.330;7.312;2022-09-09T15:54:22;18.70;99.60
15483;DHT22;7843;50.330;7.312;2022-09-09T15:56:53;18.50;99.70
15483;DHT22;7843;50.330;7.312;2022-09-09T15:59:25;18.40;99.80
15483;DHT22;7843;50.330;7.312;2022-09-09T16:01:52;18.20;99.20
15483;DHT22;7843;50.330;7.312;2022-09-09T16:04:20;18.10;99.60
15483;DHT22;7843;50.330;7.312;2022-09-09T16:07:01;18.00;99.90
15483;DHT22;7843;50.330;7.312;2022-09-09T16:09:28;17.90;99.90
15483;DHT22;7843;50.330;7.312;2022-09-09T16:11:57;17.80;99.50
15483;DHT22;7843;50.330;7.312;2022-09-09T16:14:25;17.80;99.40
15483;DHT22;7843;50.330;7.312;2022-09-09T16:16:52;17.70;99.60
15483;DHT22;7843;50.330;7.312;2022-09-09T16:19:19;17.60;99.30
15483;DHT22;7843;50.330;7.312;2022-09-09T16:21:48;17.60;99.50
15483;DHT22;7843;50.330;7.312;2022-09-09T16:24:17;17.50;99.20
15483;DHT22;7843;50.330;7.312;2022-09-09T16:26:49;17.50;98.90
15483;DHT22;7843;50.330;7.312;2022-09-09T16:29:17;17.40;99.60
15483;DHT22;7843;50.330;7.312;2022-09-09T16:31:48;17.40;99.50
15483;DHT22;7843;50.330;7.312;2022-09-09T16:34:16;17.30;99.70
15483;DHT22;7843;50.330;7.312;2022-09-09T16:36:44;17.30;99.90
15483;DHT22;7843;50.330;7.312;2022-09-09T16:39:13;17.20;99.90
15483;DHT22;7843;50.330;7.312;2022-09-09T16:41:41;17.20;99.90
15483;DHT22;7843;50.330;7.312;2022-09-09T16:44:09;17.10;99.70
15483;DHT22;7843;50.330;7.312;2022-09-09T16:46:39;17.10;99.90
15483;DHT22;7843;50.330;7.312;2022-09-09T16:49:08;17.00;99.90
15483;DHT22;7843;50.330;7.312;2022-09-09T16:51:46;16.90;99.90
15483;DHT22;7843;50.330;7.312;2022-09-09T16:54:15;16.90;99.90
15483;DHT22;7843;50.330;7.312;2022-09-09T16:56:46;16.90;99.90
15483;DHT22;7843;50.330;7.312;2022-09-09T16:59:14;16.90;99.90
15483;DHT22;7843;50.330;7.312;2022-09-09T17:01:43;16.80;99.90
15483;DHT22;7843;50.330;7.312;2022-09-09T17:04:12;16.80;99.90
15483;DHT22;7843;50.330;7.312;2022-09-09T17:06:40;16.70;99.90
15483;DHT22;7843;50.330;7.312;2022-09-09T17:09:10;16.70;99.90
15483;DHT22;7843;50.330;7.312;2022-09-09T17:11:38;16.60;99.90
15483;DHT22;7843;50.330;7.312;2022-09-09T17:14:06;16.60;99.90
15483;DHT22;7843;50.330;7.312;2022-09-09T17:16:35;16.60;99.90
15483;DHT22;7843;50.330;7.312;2022-09-09T17:19:03;16.50;99.90
15483;DHT22;7843;50.330;7.312;2022-09-09T17:21:31;16.50;99.90
15483;DHT22;7843;50.330;7.312;2022-09-09T17:23:59;16.40;99.90
15483;DHT22;7843;50.330;7.312;2022-09-09T17:26:29;16.40;99.90
15483;DHT22;7843;50.330;7.312;2022-09-09T17:28:57;16.40;99.90
15483;DHT22;7843;50.330;7.312;2022-09-09T17:31:26;16.40;99.90
15483;DHT22;7843;50.330;7.312;2022-09-09T17:33:54;16.30;99.90
15483;DHT22;7843;50.330;7.312;2022-09-09T17:36:30;16.20;99.90
15483;DHT22;7843;50.330;7.312;2022-09-09T17:38:58;16.20;99.90
15483;DHT22;7843;50.330;7.312;2022-09-09T17:41:28;16.20;99.90
15483;DHT22;7843;50.330;7.312;2022-09-09T17:43:55;16.10;99.90
15483;DHT22;7843;50.330;7.312;2022-09-09T17:46:25;16.10;99.90
15483;DHT22;7843;50.330;7.312;2022-09-09T17:48:56;16.10;99.90
15483;DHT22;7843;50.330;7.312;2022-09-09T17:51:25;16.10;99.90
15483;DHT22;7843;50.330;7.312;2022-09-09T17:53:58;16.00;99.90